sensor_id;sensor_type;location;lat;lon;timestamp;P1;durP1;ratioP1;P2;durP2;ratioP2
64868;SDS011;51349;52.424;10.840;2022-10-13T00:02:07;5.10;;;4.30;;
64868;SDS011;51349;52.424;10.840;2022-10-13T00:07:08;4.43;;;4.10;;
64868;SDS011;51349;52.424;10.840;2022-10-13T00:12:08;6.13;;;4.50;;
64868;SDS011;51349;52.424;10.840;2022-10-13T00:17:09;5.93;;;4.27;;
64868;SDS011;51349;52.424;10.840;2022-10-13T00:22:09;5.20;;;4.70;;
64868;SDS011;51349;52.424;10.840;2022-10-13T00:27:10;5.07;;;4.60;;
64868;SDS011;51349;52.424;10.840;2022-10-13T00:32:10;5.33;;;4.03;;
64868;SDS011;51349;52.424;10.840;2022-10-13T00:37:11;5.03;;;4.17;;
64868;SDS011;51349;52.424;10.840;2022-10-13T00:42:12;4.77;;;4.27;;
64868;SDS011;51349;52.424;10.840;2022-10-13T00:47:13;7.93;;;4.33;;
64868;SDS011;51349;52.424;10.840;2022-10-13T00:52:13;5.97;;;4.30;;
64868;SDS011;51349;52.424;10.840;2022-10-13T00:57:16;5.47;;;4.00;;
64868;SDS011;51349;52.424;10.840;2022-10-13T01:02:19;4.40;;;3.93;;
64868;SDS011;51349;52.424;10.840;2022-10-13T01:07:21;4.73;;;4.23;;
64868;SDS011;51349;52.424;10.840;2022-10-13T01:23:17;6.67;;;4.63;;
64868;SDS011;51349;52.424;10.840;2022-10-13T01:34:14;4.83;;;4.43;;
64868;SDS011;51349;52.424;10.840;2022-10-13T01:40:11;7.40;;;4.50;;
64868;SDS011;51349;52.424;10.840;2022-10-13T01:45:04;4.70;;;4.23;;
64868;SDS011;51349;52.424;10.840;2022-10-13T01:50:08;5.07;;;4.60;;
64868;SDS011;51349;52.424;10.840;2022-10-13T01:55:10;4.50;;;4.10;;
64868;SDS011;51349;52.424;10.840;2022-10-13T02:00:13;5.77;;;4.27;;
64868;SDS011;51349;52.424;10.840;2022-10-13T02:10:59;6.23;;;4.60;;
64868;SDS011;51349;52.424;10.840;2022-10-13T02:16:07;5.00;;;4.50;;
64868;SDS011;51349;52.424;10.840;2022-10-13T02:21:08;5.40;;;4.50;;
64868;SDS011;51349;52.424;10.840;2022-10-13T02:26:09;5.47;;;4.33;;
64868;SDS011;51349;52.424;10.840;2022-10-13T02:31:10;5.30;;;4.73;;
64868;SDS011;51349;52.424;10.840;2022-10-13T02:36:10;5.57;;;4.90;;
64868;SDS011;51349;52.424;10.840;2022-10-13T02:41:11;5.43;;;4.97;;
64868;SDS011;51349;52.424;10.840;2022-10-13T02:46:12;6.00;;;4.77;;
64868;SDS011;51349;52.424;10.840;2022-10-13T02:51:12;6.87;;;4.37;;
64868;SDS011;51349;52.424;10.840;2022-10-13T02:56:13;4.90;;;4.10;;
64868;SDS011;51349;52.424;10.840;2022-10-13T03:01:15;5.80;;;4.87;;
64868;SDS011;51349;52.424;10.840;2022-10-13T03:06:16;9.33;;;5.33;;
64868;SDS011;51349;52.424;10.840;2022-10-13T03:11:17;7.57;;;5.30;;
64868;SDS011;51349;52.424;10.840;2022-10-13T03:16:17;5.80;;;4.60;;
64868;SDS011;51349;52.424;10.840;2022-10-13T03:21:18;13.70;;;6.70;;
64868;SDS011;51349;52.424;10.840;2022-10-13T03:26:18;11.27;;;6.93;;
64868;SDS011;51349;52.424;10.840;2022-10-13T03:31:19;10.10;;;7.37;;
64868;SDS011;51349;52.424;10.840;2022-10-13T03:36:20;6.43;;;5.83;;
64868;SDS011;51349;52.424;10.840;2022-10-13T03:41:20;9.50;;;5.60;;
64868;SDS011;51349;52.424;10.840;2022-10-13T03:46:21;6.10;;;5.20;;
64868;SDS011;51349;52.424;10.840;2022-10-13T03:51:25;6.07;;;5.20;;
64868;SDS011;51349;52.424;10.840;2022-10-13T03:56:26;6.23;;;5.17;;
64868;SDS011;51349;52.424;10.840;2022-10-13T04:01:30;6.23;;;5.37;;
64868;SDS011;51349;52.424;10.840;2022-10-13T04:06:31;5.90;;;5.17;;
64868;SDS011;51349;52.424;10.840;2022-10-13T04:11:32;6.53;;;5.93;;
64868;SDS011;51349;52.424;10.840;2022-10-13T04:16:35;11.50;;;6.13;;
64868;SDS011;51349;52.424;10.840;2022-10-13T04:21:38;7.53;;;5.90;;
64868;SDS011;51349;52.424;10.840;2022-10-13T04:26:40;10.80;;;6.50;;
64868;SDS011;51349;52.424;10.840;2022-10-13T04:31:40;8.23;;;6.47;;
64868;SDS011;51349;52.424;10.840;2022-10-13T04:36:43;9.30;;;6.67;;
64868;SDS011;51349;52.424;10.840;2022-10-13T04:41:44;7.80;;;6.73;;
64868;SDS011;51349;52.424;10.840;2022-10-13T04:46:45;7.37;;;6.07;;
64868;SDS011;51349;52.424;10.840;2022-10-13T04:51:48;9.13;;;6.67;;
64868;SDS011;51349;52.424;10.840;2022-10-13T04:56:49;9.17;;;7.20;;
64868;SDS011;51349;52.424;10.840;2022-10-13T05:01:49;10.80;;;7.33;;
64868;SDS011;51349;52.424;10.840;2022-10-13T05:06:50;9.20;;;7.53;;
64868;SDS011;51349;52.424;10.840;2022-10-13T05:11:50;10.30;;;7.70;;
64868;SDS011;51349;52.424;10.840;2022-10-13T05:16:53;11.30;;;8.13;;
64868;SDS011;51349;52.424;10.840;2022-10-13T05:21:54;15.03;;;10.23;;
64868;SDS011;51349;52.424;10.840;2022-10-13T05:26:55;19.13;;;11.73;;
64868;SDS011;51349;52.424;10.840;2022-10-13T05:31:56;30.93;;;14.10;;
64868;SDS011;51349;52.424;10.840;2022-10-13T05:36:57;23.43;;;14.07;;
64868;SDS011;51349;52.424;10.840;2022-10-13T05:42:01;23.83;;;13.43;;
64868;SDS011;51349;52.424;10.840;2022-10-13T05:47:01;25.57;;;14.33;;
64868;SDS011;51349;52.424;10.840;2022-10-13T05:52:02;24.53;;;14.40;;
64868;SDS011;51349;52.424;10.840;2022-10-13T05:57:26;26.47;;;15.40;;
64868;SDS011;51349;52.424;10.840;2022-10-13T06:02:31;26.80;;;15.53;;
64868;SDS011;51349;52.424;10.840;2022-10-13T06:07:37;28.00;;;15.37;;
64868;SDS011;51349;52.424;10.840;2022-10-13T06:12:38;24.03;;;14.83;;
64868;SDS011;51349;52.424;10.840;2022-10-13T06:17:39;27.03;;;14.50;;
64868;SDS011;51349;52.424;10.840;2022-10-13T06:22:39;23.37;;;12.23;;
64868;SDS011;51349;52.424;10.840;2022-10-13T06:27:40;27.30;;;14.90;;
64868;SDS011;51349;52.424;10.840;2022-10-13T06:32:40;29.40;;;15.27;;
64868;SDS011;51349;52.424;10.840;2022-10-13T06:37:41;26.40;;;16.10;;
64868;SDS011;51349;52.424;10.840;2022-10-13T06:42:47;33.67;;;16.30;;
64868;SDS011;51349;52.424;10.840;2022-10-13T06:47:48;33.93;;;17.63;;
64868;SDS011;51349;52.424;10.840;2022-10-13T06:52:53;29.67;;;17.90;;
64868;SDS011;51349;52.424;10.840;2022-10-13T06:57:55;34.07;;;17.10;;
64868;SDS011;51349;52.424;10.840;2022-10-13T07:02:56;30.33;;;17.87;;
64868;SDS011;51349;52.424;10.840;2022-10-13T07:07:56;33.07;;;17.53;;
64868;SDS011;51349;52.424;10.840;2022-10-13T07:12:57;33.80;;;17.80;;
64868;SDS011;51349;52.424;10.840;2022-10-13T07:17:57;29.77;;;16.00;;
64868;SDS011;51349;52.424;10.840;2022-10-13T07:22:58;27.30;;;16.50;;
64868;SDS011;51349;52.424;10.840;2022-10-13T07:27:59;26.17;;;16.30;;
64868;SDS011;51349;52.424;10.840;2022-10-13T07:32:59;28.87;;;17.50;;
64868;SDS011;51349;52.424;10.840;2022-10-13T07:38:01;22.33;;;14.73;;
64868;SDS011;51349;52.424;10.840;2022-10-13T07:43:01;24.60;;;14.30;;
64868;SDS011;51349;52.424;10.840;2022-10-13T07:48:02;20.67;;;14.50;;
64868;SDS011;51349;52.424;10.840;2022-10-13T07:53:03;22.23;;;14.23;;
64868;SDS011;51349;52.424;10.840;2022-10-13T07:58:03;18.73;;;14.27;;
64868;SDS011;51349;52.424;10.840;2022-10-13T08:03:04;20.93;;;13.73;;
64868;SDS011;51349;52.424;10.840;2022-10-13T08:08:05;20.63;;;13.17;;
64868;SDS011;51349;52.424;10.840;2022-10-13T08:13:05;23.03;;;13.90;;
64868;SDS011;51349;52.424;10.840;2022-10-13T08:18:06;17.70;;;13.27;;
64868;SDS011;51349;52.424;10.840;2022-10-13T08:23:08;23.58;;;14.90;;
64868;SDS011;51349;52.424;10.840;2022-10-13T08:28:16;21.13;;;13.82;;
64868;SDS011;51349;52.424;10.840;2022-10-13T08:33:19;20.43;;;14.13;;
64868;SDS011;51349;52.424;10.840;2022-10-13T08:38:19;19.98;;;13.93;;
64868;SDS011;51349;52.424;10.840;2022-10-13T08:43:21;21.52;;;12.88;;
64868;SDS011;51349;52.424;10.840;2022-10-13T08:48:32;15.88;;;11.85;;
64868;SDS011;51349;52.424;10.840;2022-10-13T08:53:41;19.67;;;12.40;;
64868;SDS011;51349;52.424;10.840;2022-10-13T08:58:44;17.75;;;12.20;;
64868;SDS011;51349;52.424;10.840;2022-10-13T09:03:53;19.15;;;12.77;;
64868;SDS011;51349;52.424;10.840;2022-10-13T09:13:59;16.05;;;11.07;;
64868;SDS011;51349;52.424;10.840;2022-10-13T09:19:34;14.05;;;10.80;;
64868;SDS011;51349;52.424;10.840;2022-10-13T09:24:32;18.20;;;10.25;;
64868;SDS011;51349;52.424;10.840;2022-10-13T09:29:33;16.67;;;10.65;;
64868;SDS011;51349;52.424;10.840;2022-10-13T09:34:34;12.18;;;10.07;;
64868;SDS011;51349;52.424;10.840;2022-10-13T09:39:34;16.85;;;9.35;;
64868;SDS011;51349;52.424;10.840;2022-10-13T09:44:35;12.55;;;9.50;;
64868;SDS011;51349;52.424;10.840;2022-10-13T09:49:37;10.57;;;8.98;;
64868;SDS011;51349;52.424;10.840;2022-10-13T09:54:47;9.43;;;8.43;;
64868;SDS011;51349;52.424;10.840;2022-10-13T10:05:06;13.55;;;8.38;;
64868;SDS011;51349;52.424;10.840;2022-10-13T10:10:23;10.38;;;7.07;;
64868;SDS011;51349;52.424;10.840;2022-10-13T10:26:00;9.93;;;7.07;;
64868;SDS011;51349;52.424;10.840;2022-10-13T10:36:26;8.40;;;6.80;;
64868;SDS011;51349;52.424;10.840;2022-10-13T10:46:49;8.57;;;7.30;;
64868;SDS011;51349;52.424;10.840;2022-10-13T10:51:50;8.25;;;6.90;;
64868;SDS011;51349;52.424;10.840;2022-10-13T10:57:03;8.20;;;6.80;;
64868;SDS011;51349;52.424;10.840;2022-10-13T11:02:22;7.90;;;6.35;;
64868;SDS011;51349;52.424;10.840;2022-10-13T11:12:47;10.88;;;5.93;;
64868;SDS011;51349;52.424;10.840;2022-10-13T11:17:48;8.57;;;5.40;;
64868;SDS011;51349;52.424;10.840;2022-10-13T11:27:58;7.72;;;5.40;;
64868;SDS011;51349;52.424;10.840;2022-10-13T11:32:59;8.20;;;5.78;;
64868;SDS011;51349;52.424;10.840;2022-10-13T11:38:19;8.02;;;5.70;;
64868;SDS011;51349;52.424;10.840;2022-10-13T11:53:41;8.52;;;4.95;;
64868;SDS011;51349;52.424;10.840;2022-10-13T11:58:57;6.82;;;5.03;;
64868;SDS011;51349;52.424;10.840;2022-10-13T12:03:57;7.22;;;5.20;;
64868;SDS011;51349;52.424;10.840;2022-10-13T12:09:03;5.50;;;4.80;;
64868;SDS011;51349;52.424;10.840;2022-10-13T12:14:20;5.05;;;4.40;;
64868;SDS011;51349;52.424;10.840;2022-10-13T12:19:27;8.25;;;4.53;;
64868;SDS011;51349;52.424;10.840;2022-10-13T12:24:30;7.45;;;4.05;;
64868;SDS011;51349;52.424;10.840;2022-10-13T12:29:31;7.53;;;4.03;;
64868;SDS011;51349;52.424;10.840;2022-10-13T12:34:38;6.85;;;4.03;;
64868;SDS011;51349;52.424;10.840;2022-10-13T12:39:38;5.32;;;3.90;;
64868;SDS011;51349;52.424;10.840;2022-10-13T12:44:39;7.22;;;4.50;;
64868;SDS011;51349;52.424;10.840;2022-10-13T12:49:40;4.80;;;4.22;;
64868;SDS011;51349;52.424;10.840;2022-10-13T12:54:51;5.82;;;4.25;;
64868;SDS011;51349;52.424;10.840;2022-10-13T12:59:53;6.63;;;4.10;;
64868;SDS011;51349;52.424;10.840;2022-10-13T13:04:55;7.35;;;3.97;;
64868;SDS011;51349;52.424;10.840;2022-10-13T13:15:37;5.07;;;3.78;;
64868;SDS011;51349;52.424;10.840;2022-10-13T13:20:37;4.97;;;3.97;;
64868;SDS011;51349;52.424;10.840;2022-10-13T13:25:38;5.20;;;3.55;;
64868;SDS011;51349;52.424;10.840;2022-10-13T13:30:39;5.18;;;3.92;;
64868;SDS011;51349;52.424;10.840;2022-10-13T13:35:39;4.20;;;3.55;;
64868;SDS011;51349;52.424;10.840;2022-10-13T13:40:40;4.82;;;4.28;;
64868;SDS011;51349;52.424;10.840;2022-10-13T13:45:41;10.45;;;4.78;;
64868;SDS011;51349;52.424;10.840;2022-10-13T13:50:42;7.70;;;4.53;;
64868;SDS011;51349;52.424;10.840;2022-10-13T13:55:42;5.20;;;4.13;;
64868;SDS011;51349;52.424;10.840;2022-10-13T14:00:45;6.20;;;4.60;;
64868;SDS011;51349;52.424;10.840;2022-10-13T14:05:46;6.00;;;4.18;;
64868;SDS011;51349;52.424;10.840;2022-10-13T14:10:47;7.35;;;4.45;;
64868;SDS011;51349;52.424;10.840;2022-10-13T14:16:05;5.88;;;5.28;;
64868;SDS011;51349;52.424;10.840;2022-10-13T14:21:06;7.28;;;4.68;;
64868;SDS011;51349;52.424;10.840;2022-10-13T14:26:07;5.07;;;4.57;;
64868;SDS011;51349;52.424;10.840;2022-10-13T14:31:08;5.75;;;5.25;;
64868;SDS011;51349;52.424;10.840;2022-10-13T14:36:09;6.65;;;5.18;;
64868;SDS011;51349;52.424;10.840;2022-10-13T14:41:10;5.00;;;4.28;;
64868;SDS011;51349;52.424;10.840;2022-10-13T14:46:11;6.30;;;5.10;;
64868;SDS011;51349;52.424;10.840;2022-10-13T14:51:12;7.90;;;5.18;;
64868;SDS011;51349;52.424;10.840;2022-10-13T14:56:26;9.15;;;4.72;;
64868;SDS011;51349;52.424;10.840;2022-10-13T15:01:29;5.88;;;5.28;;
64868;SDS011;51349;52.424;10.840;2022-10-13T15:06:30;7.55;;;4.97;;
64868;SDS011;51349;52.424;10.840;2022-10-13T15:11:31;5.20;;;4.53;;
64868;SDS011;51349;52.424;10.840;2022-10-13T15:16:34;7.57;;;4.57;;
64868;SDS011;51349;52.424;10.840;2022-10-13T15:21:36;6.63;;;5.10;;
64868;SDS011;51349;52.424;10.840;2022-10-13T15:26:37;5.65;;;4.88;;
64868;SDS011;51349;52.424;10.840;2022-10-13T15:31:37;6.57;;;4.50;;
64868;SDS011;51349;52.424;10.840;2022-10-13T15:36:38;7.15;;;4.80;;
64868;SDS011;51349;52.424;10.840;2022-10-13T15:41:38;7.85;;;4.78;;
64868;SDS011;51349;52.424;10.840;2022-10-13T15:46:39;5.05;;;4.45;;
64868;SDS011;51349;52.424;10.840;2022-10-13T15:51:40;5.82;;;4.65;;
64868;SDS011;51349;52.424;10.840;2022-10-13T15:56:40;5.38;;;4.80;;
64868;SDS011;51349;52.424;10.840;2022-10-13T16:01:41;5.82;;;5.18;;
64868;SDS011;51349;52.424;10.840;2022-10-13T16:06:41;8.13;;;6.82;;
64868;SDS011;51349;52.424;10.840;2022-10-13T16:11:42;6.85;;;4.75;;
64868;SDS011;51349;52.424;10.840;2022-10-13T16:16:43;5.13;;;4.63;;
64868;SDS011;51349;52.424;10.840;2022-10-13T16:21:43;5.32;;;4.25;;
64868;SDS011;51349;52.424;10.840;2022-10-13T16:26:45;4.85;;;4.35;;
64868;SDS011;51349;52.424;10.840;2022-10-13T16:31:46;4.18;;;3.83;;
64868;SDS011;51349;52.424;10.840;2022-10-13T16:36:47;8.02;;;3.70;;
64868;SDS011;51349;52.424;10.840;2022-10-13T16:41:48;3.90;;;3.60;;
64868;SDS011;51349;52.424;10.840;2022-10-13T16:46:50;6.50;;;4.10;;
64868;SDS011;51349;52.424;10.840;2022-10-13T16:51:52;4.57;;;3.67;;
64868;SDS011;51349;52.424;10.840;2022-10-13T16:56:53;5.53;;;3.92;;
64868;SDS011;51349;52.424;10.840;2022-10-13T17:01:54;5.25;;;3.97;;
64868;SDS011;51349;52.424;10.840;2022-10-13T17:06:56;5.05;;;3.70;;
64868;SDS011;51349;52.424;10.840;2022-10-13T17:11:57;6.05;;;3.92;;
64868;SDS011;51349;52.424;10.840;2022-10-13T17:16:58;6.45;;;4.28;;
64868;SDS011;51349;52.424;10.840;2022-10-13T17:21:59;4.53;;;4.13;;
64868;SDS011;51349;52.424;10.840;2022-10-13T17:27:00;5.85;;;4.72;;
64868;SDS011;51349;52.424;10.840;2022-10-13T17:32:00;7.18;;;4.15;;
64868;SDS011;51349;52.424;10.840;2022-10-13T17:37:01;7.13;;;4.28;;
64868;SDS011;51349;52.424;10.840;2022-10-13T17:42:03;5.55;;;4.70;;
64868;SDS011;51349;52.424;10.840;2022-10-13T17:47:04;6.18;;;4.47;;
64868;SDS011;51349;52.424;10.840;2022-10-13T17:52:05;5.47;;;4.72;;
64868;SDS011;51349;52.424;10.840;2022-10-13T17:57:05;6.90;;;4.45;;
64868;SDS011;51349;52.424;10.840;2022-10-13T18:02:07;5.65;;;4.13;;
64868;SDS011;51349;52.424;10.840;2022-10-13T18:07:08;4.70;;;4.20;;
64868;SDS011;51349;52.424;10.840;2022-10-13T18:12:09;7.35;;;4.88;;
64868;SDS011;51349;52.424;10.840;2022-10-13T18:17:11;4.93;;;4.53;;
64868;SDS011;51349;52.424;10.840;2022-10-13T18:22:11;8.30;;;4.43;;
64868;SDS011;51349;52.424;10.840;2022-10-13T18:27:12;6.75;;;4.63;;
64868;SDS011;51349;52.424;10.840;2022-10-13T18:32:12;6.82;;;5.03;;
64868;SDS011;51349;52.424;10.840;2022-10-13T18:37:13;7.13;;;5.43;;
64868;SDS011;51349;52.424;10.840;2022-10-13T18:42:14;6.82;;;5.57;;
64868;SDS011;51349;52.424;10.840;2022-10-13T18:47:14;6.70;;;5.85;;
64868;SDS011;51349;52.424;10.840;2022-10-13T18:52:15;10.48;;;6.00;;
64868;SDS011;51349;52.424;10.840;2022-10-13T18:57:16;7.35;;;6.43;;
64868;SDS011;51349;52.424;10.840;2022-10-13T19:02:17;8.85;;;6.05;;
64868;SDS011;51349;52.424;10.840;2022-10-13T19:07:17;6.53;;;5.93;;
64868;SDS011;51349;52.424;10.840;2022-10-13T19:12:18;8.27;;;6.40;;
64868;SDS011;51349;52.424;10.840;2022-10-13T19:17:18;6.57;;;5.90;;
64868;SDS011;51349;52.424;10.840;2022-10-13T19:22:19;8.18;;;6.13;;
64868;SDS011;51349;52.424;10.840;2022-10-13T19:27:19;7.43;;;6.60;;
64868;SDS011;51349;52.424;10.840;2022-10-13T19:32:20;6.47;;;5.88;;
64868;SDS011;51349;52.424;10.840;2022-10-13T19:37:21;7.70;;;6.57;;
64868;SDS011;51349;52.424;10.840;2022-10-13T19:42:22;10.70;;;7.22;;
64868;SDS011;51349;52.424;10.840;2022-10-13T19:47:22;8.07;;;6.60;;
64868;SDS011;51349;52.424;10.840;2022-10-13T19:52:23;10.10;;;6.93;;
64868;SDS011;51349;52.424;10.840;2022-10-13T19:57:24;8.43;;;6.95;;
64868;SDS011;51349;52.424;10.840;2022-10-13T20:02:24;9.52;;;7.05;;
64868;SDS011;51349;52.424;10.840;2022-10-13T20:07:25;8.38;;;6.97;;
64868;SDS011;51349;52.424;10.840;2022-10-13T20:12:25;7.07;;;6.35;;
64868;SDS011;51349;52.424;10.840;2022-10-13T20:17:29;8.10;;;7.03;;
64868;SDS011;51349;52.424;10.840;2022-10-13T20:22:30;10.13;;;6.80;;
64868;SDS011;51349;52.424;10.840;2022-10-13T20:27:31;9.52;;;7.25;;
64868;SDS011;51349;52.424;10.840;2022-10-13T20:32:32;10.40;;;7.30;;
64868;SDS011;51349;52.424;10.840;2022-10-13T20:37:32;7.57;;;6.88;;
64868;SDS011;51349;52.424;10.840;2022-10-13T20:42:33;8.77;;;6.65;;
64868;SDS011;51349;52.424;10.840;2022-10-13T20:47:34;10.38;;;6.60;;
64868;SDS011;51349;52.424;10.840;2022-10-13T20:52:35;15.13;;;7.63;;
64868;SDS011;51349;52.424;10.840;2022-10-13T20:57:36;9.75;;;7.03;;
64868;SDS011;51349;52.424;10.840;2022-10-13T21:02:37;8.90;;;7.57;;
64868;SDS011;51349;52.424;10.840;2022-10-13T21:07:38;10.63;;;7.45;;
64868;SDS011;51349;52.424;10.840;2022-10-13T21:12:38;9.88;;;8.00;;
64868;SDS011;51349;52.424;10.840;2022-10-13T21:17:39;12.55;;;8.07;;
64868;SDS011;51349;52.424;10.840;2022-10-13T21:22:40;9.93;;;7.68;;
64868;SDS011;51349;52.424;10.840;2022-10-13T21:27:40;13.23;;;8.05;;
64868;SDS011;51349;52.424;10.840;2022-10-13T21:32:41;13.80;;;8.30;;
64868;SDS011;51349;52.424;10.840;2022-10-13T21:37:41;8.82;;;7.90;;
64868;SDS011;51349;52.424;10.840;2022-10-13T21:42:42;11.23;;;8.65;;
64868;SDS011;51349;52.424;10.840;2022-10-13T21:47:43;13.70;;;10.23;;
64868;SDS011;51349;52.424;10.840;2022-10-13T21:52:43;11.48;;;9.02;;
64868;SDS011;51349;52.424;10.840;2022-10-13T21:57:44;11.10;;;8.43;;
64868;SDS011;51349;52.424;10.840;2022-10-13T22:02:44;10.77;;;8.43;;
64868;SDS011;51349;52.424;10.840;2022-10-13T22:07:45;11.05;;;8.77;;
64868;SDS011;51349;52.424;10.840;2022-10-13T22:12:46;14.80;;;9.60;;
64868;SDS011;51349;52.424;10.840;2022-10-13T22:17:46;13.88;;;9.45;;
64868;SDS011;51349;52.424;10.840;2022-10-13T22:22:47;14.80;;;9.73;;
64868;SDS011;51349;52.424;10.840;2022-10-13T22:27:47;12.07;;;9.38;;
64868;SDS011;51349;52.424;10.840;2022-10-13T22:32:48;15.68;;;9.80;;
64868;SDS011;51349;52.424;10.840;2022-10-13T22:37:48;13.38;;;9.43;;
64868;SDS011;51349;52.424;10.840;2022-10-13T22:42:49;10.98;;;9.25;;
64868;SDS011;51349;52.424;10.840;2022-10-13T22:47:50;10.27;;;9.18;;
64868;SDS011;51349;52.424;10.840;2022-10-13T22:52:50;13.43;;;9.32;;
64868;SDS011;51349;52.424;10.840;2022-10-13T22:57:54;11.77;;;9.80;;
64868;SDS011;51349;52.424;10.840;2022-10-13T23:02:55;13.10;;;9.07;;
64868;SDS011;51349;52.424;10.840;2022-10-13T23:07:55;13.13;;;9.55;;
64868;SDS011;51349;52.424;10.840;2022-10-13T23:12:56;15.48;;;9.15;;
64868;SDS011;51349;52.424;10.840;2022-10-13T23:17:59;13.60;;;9.85;;
64868;SDS011;51349;52.424;10.840;2022-10-13T23:23:00;9.95;;;8.93;;
64868;SDS011;51349;52.424;10.840;2022-10-13T23:28:01;14.40;;;9.40;;
64868;SDS011;51349;52.424;10.840;2022-10-13T23:33:02;13.95;;;10.05;;
64868;SDS011;51349;52.424;10.840;2022-10-13T23:38:02;13.40;;;9.95;;
64868;SDS011;51349;52.424;10.840;2022-10-13T23:43:03;11.55;;;9.30;;
64868;SDS011;51349;52.424;10.840;2022-10-13T23:48:10;8.18;;;7.25;;
64868;SDS011;51349;52.424;10.840;2022-10-13T23:53:14;10.95;;;7.65;;
64868;SDS011;51349;52.424;10.840;2022-10-13T23:58:14;10.10;;;8.90;;
